createdAt,value
2023-02-03T00:00:21.811Z,1.11
2023-02-03T00:03:11.102Z,1.17
2023-02-03T00:05:41.867Z,1.21
2023-02-03T00:08:11.566Z,1.21
2023-02-03T00:10:40.833Z,1.19
2023-02-03T00:13:10.086Z,1.20
2023-02-03T00:15:38.951Z,1.21
2023-02-03T00:18:08.032Z,1.20
2023-02-03T00:20:36.649Z,1.18
2023-02-03T00:23:11.219Z,1.18
2023-02-03T00:25:41.393Z,1.18
2023-02-03T00:28:10.386Z,1.21
2023-02-03T00:30:39.636Z,1.25
2023-02-03T00:33:08.677Z,1.27
2023-02-03T00:35:40.939Z,1.30
2023-02-03T00:38:09.720Z,1.28
2023-02-03T00:40:38.373Z,1.26
2023-02-03T00:43:07.588Z,1.21
2023-02-03T00:45:36.548Z,1.14
2023-02-03T00:48:05.413Z,1.10
2023-02-03T00:50:34.428Z,1.06
2023-02-03T00:53:03.494Z,1.05
2023-02-03T00:55:32.112Z,1.05
2023-02-03T00:58:01.191Z,1.06
2023-02-03T01:00:30.089Z,1.07
2023-02-03T01:02:58.621Z,1.10
2023-02-03T01:05:28.166Z,1.17
2023-02-03T01:07:57.268Z,1.23
2023-02-03T01:10:26.096Z,1.27
2023-02-03T01:12:55.632Z,1.30
2023-02-03T01:15:24.850Z,1.34
2023-02-03T01:17:53.978Z,1.38
2023-02-03T01:20:24.752Z,1.40
2023-02-03T01:22:53.875Z,1.45
2023-02-03T01:25:22.443Z,1.48
2023-02-03T01:27:51.719Z,1.49
2023-02-03T01:30:20.696Z,1.49
2023-02-03T01:32:49.799Z,1.48
2023-02-03T01:35:18.544Z,1.48
2023-02-03T01:37:47.532Z,1.52
2023-02-03T01:40:16.275Z,1.56
2023-02-03T01:42:45.373Z,1.61
2023-02-03T01:45:14.628Z,1.66
2023-02-03T01:47:52.019Z,1.71
2023-02-03T01:50:26.830Z,1.74
2023-02-03T01:53:01.830Z,1.75
2023-02-03T01:55:43.500Z,1.72
2023-02-03T01:58:20.563Z,1.70
2023-02-03T02:00:50.593Z,1.65
2023-02-03T02:03:28.445Z,1.63
2023-02-03T02:06:06.007Z,1.62
2023-02-03T02:08:36.273Z,1.62
2023-02-03T02:11:07.278Z,1.64
2023-02-03T02:13:37.489Z,1.68
2023-02-03T02:16:36.388Z,1.72
2023-02-03T02:19:05.292Z,1.76
2023-02-03T02:21:51.036Z,1.78
2023-02-03T02:24:58.348Z,1.73
2023-02-03T02:27:49.350Z,1.61
2023-02-03T02:30:55.844Z,1.57
2023-02-03T02:33:52.805Z,1.58
2023-02-03T02:36:30.906Z,1.61
2023-02-03T02:39:06.313Z,1.61
2023-02-03T02:41:50.078Z,1.61
2023-02-03T02:44:34.433Z,1.67
2023-02-03T02:47:11.249Z,1.75
2023-02-03T02:49:55.447Z,1.81
2023-02-03T02:52:26.816Z,1.86
2023-02-03T02:55:02.781Z,1.87
2023-02-03T02:57:37.361Z,1.88
2023-02-03T03:00:08.411Z,1.86
2023-02-03T03:02:37.528Z,1.84
2023-02-03T03:05:10.011Z,1.83
2023-02-03T03:07:50.341Z,1.82
2023-02-03T03:10:25.586Z,1.77
2023-02-03T03:13:02.274Z,1.73
2023-02-03T03:15:34.359Z,1.72
2023-02-03T03:18:23.804Z,1.73
2023-02-03T03:20:57.128Z,1.76
2023-02-03T03:23:31.683Z,1.78
2023-02-03T03:26:11.505Z,1.82
2023-02-03T03:28:49.687Z,1.88
2023-02-03T03:31:20.709Z,1.92
2023-02-03T03:33:50.185Z,1.96
2023-02-03T03:36:45.336Z,2.00
2023-02-03T03:39:35.989Z,2.00
2023-02-03T03:42:20.177Z,2.01
2023-02-03T03:44:58.484Z,2.02
2023-02-03T03:47:43.172Z,2.02
2023-02-03T03:50:19.432Z,2.02
2023-02-03T03:52:50.670Z,1.98
2023-02-03T03:55:21.043Z,1.96
2023-02-03T03:58:00.993Z,1.94
2023-02-03T04:00:32.803Z,1.94
2023-02-03T04:03:08.973Z,1.96
2023-02-03T04:05:40.191Z,1.99
2023-02-03T04:08:09.191Z,2.01
2023-02-03T04:10:40.660Z,2.03
2023-02-03T04:13:11.537Z,2.07
2023-02-03T04:15:40.220Z,2.11
2023-02-03T04:18:13.038Z,2.12
2023-02-03T04:20:42.138Z,2.13
2023-02-03T04:23:11.088Z,2.15
2023-02-03T04:25:39.936Z,2.17
2023-02-03T04:28:09.289Z,2.19
2023-02-03T04:30:38.228Z,2.19
2023-02-03T04:33:07.047Z,2.17
2023-02-03T04:35:36.417Z,2.17
2023-02-03T04:38:05.040Z,2.20
2023-02-03T04:40:35.076Z,2.19
2023-02-03T04:43:08.300Z,2.20
2023-02-03T04:45:37.604Z,2.22
2023-02-03T04:48:06.489Z,2.25
2023-02-03T04:50:35.101Z,2.28
2023-02-03T04:53:04.310Z,2.29
2023-02-03T04:55:33.225Z,2.32
2023-02-03T04:58:02.199Z,2.33
2023-02-03T05:00:31.353Z,2.34
2023-02-03T05:03:00.230Z,2.35
2023-02-03T05:05:29.273Z,2.37
2023-02-03T05:07:58.275Z,2.40
2023-02-03T05:10:27.720Z,2.40
2023-02-03T05:12:56.533Z,2.39
2023-02-03T05:15:25.869Z,2.39
2023-02-03T05:17:55.977Z,2.37
2023-02-03T05:20:25.141Z,2.35
2023-02-03T05:22:54.918Z,2.34
2023-02-03T05:25:24.294Z,2.32
2023-02-03T05:27:52.942Z,2.31
2023-02-03T05:30:21.956Z,2.30
2023-02-03T05:32:50.958Z,2.29
2023-02-03T05:35:19.578Z,2.27
2023-02-03T05:37:49.430Z,2.24
2023-02-03T05:40:37.523Z,2.22
2023-02-03T05:43:06.930Z,2.19
2023-02-03T05:45:36.137Z,2.18
2023-02-03T05:48:04.777Z,2.16
2023-02-03T05:50:38.368Z,2.12
2023-02-03T05:53:10.420Z,2.10
2023-02-03T05:55:39.706Z,2.07
2023-02-03T05:58:08.405Z,2.07
2023-02-03T06:00:37.254Z,2.05
2023-02-03T06:03:06.326Z,2.03
2023-02-03T06:05:36.246Z,2.04
2023-02-03T06:08:05.387Z,2.01
2023-02-03T06:10:34.982Z,2.00
2023-02-03T06:13:14.877Z,2.00
2023-02-03T06:15:44.450Z,1.98
2023-02-03T06:18:13.605Z,1.96
2023-02-03T06:20:42.118Z,1.93
2023-02-03T06:23:11.236Z,1.92
2023-02-03T06:25:40.389Z,1.92
2023-02-03T06:28:09.151Z,1.92
2023-02-03T06:30:38.550Z,1.94
2023-02-03T06:33:07.722Z,1.96
2023-02-03T06:35:37.060Z,1.98
2023-02-03T06:38:06.500Z,2.01
2023-02-03T06:40:35.179Z,2.03
2023-02-03T06:43:03.922Z,2.06
2023-02-03T06:45:33.083Z,2.10
2023-02-03T06:48:02.150Z,2.13
2023-02-03T06:50:30.893Z,2.15
2023-02-03T06:53:00.171Z,2.18
2023-02-03T06:55:29.230Z,2.20
2023-02-03T06:57:57.809Z,2.23
2023-02-03T07:00:26.954Z,2.26
2023-02-03T07:02:57.734Z,2.28
2023-02-03T07:05:28.807Z,2.31
2023-02-03T07:07:57.861Z,2.35
2023-02-03T07:10:26.999Z,2.38
2023-02-03T07:12:56.086Z,2.42
2023-02-03T07:15:25.319Z,2.47
2023-02-03T07:17:55.144Z,2.53
2023-02-03T07:20:25.378Z,2.57
2023-02-03T07:22:56.981Z,2.59
2023-02-03T07:25:26.911Z,2.60
2023-02-03T07:27:55.511Z,2.62
2023-02-03T07:30:24.261Z,2.66
2023-02-03T07:32:54.150Z,2.71
2023-02-03T07:35:22.793Z,2.73
2023-02-03T07:37:52.167Z,2.77
2023-02-03T07:40:21.481Z,2.83
2023-02-03T07:42:50.497Z,2.88
2023-02-03T07:45:19.877Z,2.93
2023-02-03T07:47:49.291Z,2.99
2023-02-03T07:50:18.592Z,3.06
2023-02-03T07:52:47.639Z,3.12
2023-02-03T07:55:16.626Z,3.19
2023-02-03T07:57:45.871Z,3.29
2023-02-03T08:00:16.679Z,3.36
2023-02-03T08:02:46.133Z,3.45
2023-02-03T08:05:16.096Z,3.51
2023-02-03T08:07:45.553Z,3.53
2023-02-03T08:10:19.263Z,3.56
2023-02-03T08:12:48.559Z,3.60
2023-02-03T08:15:17.576Z,3.61
2023-02-03T08:17:46.956Z,3.61
2023-02-03T08:20:17.059Z,3.62
2023-02-03T08:22:45.643Z,3.63
2023-02-03T08:25:14.735Z,3.66
2023-02-03T08:27:43.629Z,3.68
2023-02-03T08:30:14.384Z,3.68
2023-02-03T08:32:43.249Z,3.69
2023-02-03T08:35:12.473Z,3.70
2023-02-03T08:37:41.465Z,3.72
2023-02-03T08:40:11.673Z,3.77
2023-02-03T08:42:40.803Z,3.83
2023-02-03T08:45:09.707Z,3.90
2023-02-03T08:47:38.640Z,3.96
2023-02-03T08:50:09.387Z,4.04
2023-02-03T08:52:38.052Z,4.11
2023-02-03T08:55:07.383Z,4.16
2023-02-03T08:57:37.693Z,4.26
2023-02-03T09:00:10.923Z,4.34
2023-02-03T09:02:41.080Z,4.42
2023-02-03T09:05:10.633Z,4.49
2023-02-03T09:07:39.307Z,4.55
2023-02-03T09:10:08.670Z,4.60
2023-02-03T09:12:37.300Z,4.66
2023-02-03T09:15:06.590Z,4.71
2023-02-03T09:17:36.557Z,4.74
2023-02-03T09:20:06.430Z,4.79
2023-02-03T09:22:35.072Z,4.82
2023-02-03T09:25:04.511Z,4.85
2023-02-03T09:27:33.219Z,4.86
2023-02-03T09:30:02.106Z,4.90
2023-02-03T09:32:30.939Z,4.93
2023-02-03T09:35:02.697Z,4.98
2023-02-03T09:37:31.261Z,5.00
2023-02-03T09:40:00.282Z,4.97
2023-02-03T09:43:23.286Z,4.92
2023-02-03T09:46:26.532Z,4.97
2023-02-03T09:49:03.737Z,5.02
2023-02-03T09:51:49.599Z,5.12
2023-02-03T09:54:52.376Z,5.18
2023-02-03T09:57:24.256Z,5.21
2023-02-03T09:59:55.146Z,5.23
2023-02-03T10:02:51.085Z,5.22
2023-02-03T10:05:36.765Z,5.20
2023-02-03T10:08:22.134Z,5.19
2023-02-03T10:11:10.015Z,5.20
2023-02-03T10:13:41.507Z,5.20
2023-02-03T10:16:22.780Z,5.21
2023-02-03T10:18:55.515Z,5.21
2023-02-03T10:21:37.990Z,5.22
2023-02-03T10:24:14.724Z,5.24
2023-02-03T10:26:43.539Z,5.23
2023-02-03T10:29:24.333Z,5.22
2023-02-03T10:31:57.583Z,5.21
2023-02-03T10:34:27.669Z,5.21
2023-02-03T10:37:04.054Z,5.21
2023-02-03T10:40:03.143Z,5.18
2023-02-03T10:42:53.815Z,5.17
2023-02-03T10:45:23.030Z,5.15
2023-02-03T10:47:56.628Z,5.15
2023-02-03T10:50:32.083Z,5.13
2023-02-03T10:53:37.129Z,5.13
2023-02-03T10:56:11.179Z,5.13
2023-02-03T10:58:47.335Z,5.14
2023-02-03T11:01:19.527Z,5.16
2023-02-03T11:03:56.383Z,5.18
2023-02-03T11:06:25.891Z,5.18
2023-02-03T11:08:55.802Z,5.19
2023-02-03T11:11:35.661Z,5.20
2023-02-03T11:14:04.490Z,5.19
2023-02-03T11:16:36.876Z,5.18
2023-02-03T11:19:21.221Z,5.16
2023-02-03T11:21:56.823Z,5.17
2023-02-03T11:24:31.265Z,5.17
2023-02-03T11:27:05.010Z,5.18
2023-02-03T11:29:41.170Z,5.21
2023-02-03T11:32:23.602Z,5.25
2023-02-03T11:35:03.160Z,5.29
2023-02-03T11:37:43.590Z,5.34
2023-02-03T11:40:27.646Z,5.36
2023-02-03T11:42:56.488Z,5.40
2023-02-03T11:45:28.086Z,5.45
2023-02-03T11:48:11.694Z,5.48
2023-02-03T11:51:00.839Z,5.51
2023-02-03T11:53:37.795Z,5.54
2023-02-03T11:56:38.462Z,5.57
2023-02-03T11:59:25.891Z,5.60
2023-02-03T12:02:13.958Z,5.62
2023-02-03T12:04:48.709Z,5.66
2023-02-03T12:07:45.469Z,5.72
2023-02-03T12:10:25.004Z,5.77
2023-02-03T12:13:24.911Z,5.82
2023-02-03T12:16:24.995Z,5.90
2023-02-03T12:19:05.891Z,5.96
2023-02-03T12:21:44.377Z,6.01
2023-02-03T12:24:20.088Z,6.04
2023-02-03T12:27:15.527Z,6.06
2023-02-03T12:29:58.911Z,6.11
2023-02-03T12:32:42.862Z,6.16
2023-02-03T12:35:33.983Z,6.22
2023-02-03T12:38:17.876Z,6.35
2023-02-03T12:40:57.214Z,6.48
2023-02-03T12:43:37.965Z,6.65
2023-02-03T12:46:18.645Z,6.84
2023-02-03T12:48:56.561Z,6.96
2023-02-03T12:51:42.561Z,6.98
2023-02-03T12:54:40.566Z,6.99
2023-02-03T12:57:42.226Z,7.02
2023-02-03T13:00:17.052Z,7.00
2023-02-03T13:02:52.322Z,7.01
2023-02-03T13:05:33.187Z,7.03
2023-02-03T13:08:13.395Z,7.08
2023-02-03T13:10:55.734Z,7.15
2023-02-03T13:13:35.526Z,7.25
2023-02-03T13:16:09.603Z,7.31
2023-02-03T13:18:44.740Z,7.34
2023-02-03T13:21:13.414Z,7.30
2023-02-03T13:23:48.643Z,7.24
2023-02-03T13:26:32.866Z,7.17
2023-02-03T13:29:10.541Z,7.08
2023-02-03T13:31:39.217Z,6.98
2023-02-03T13:34:40.870Z,6.89
2023-02-03T13:37:24.187Z,6.83
2023-02-03T13:40:15.757Z,6.76
2023-02-03T13:42:55.989Z,6.53
2023-02-03T13:45:27.706Z,6.03
2023-02-03T13:48:09.937Z,5.64
2023-02-03T13:50:40.518Z,5.46
2023-02-03T13:53:21.817Z,5.40
2023-02-03T13:56:07.052Z,5.34
2023-02-03T13:58:40.836Z,5.31
2023-02-03T14:01:31.268Z,5.33
2023-02-03T14:04:00.940Z,5.37
2023-02-03T14:06:52.917Z,5.43
2023-02-03T14:09:31.333Z,5.48
2023-02-03T14:12:31.437Z,5.50
2023-02-03T14:15:13.957Z,5.55
2023-02-03T14:17:42.758Z,5.59
2023-02-03T14:20:42.823Z,5.61
2023-02-03T14:23:20.179Z,5.65
2023-02-03T14:26:00.576Z,5.67
2023-02-03T14:28:41.384Z,5.69
2023-02-03T14:31:23.669Z,5.65
2023-02-03T14:34:05.594Z,5.63
2023-02-03T14:36:45.862Z,5.62
2023-02-03T14:39:17.623Z,5.68
2023-02-03T14:42:03.500Z,5.74
2023-02-03T14:44:55.401Z,5.80
2023-02-03T14:47:33.193Z,5.86
2023-02-03T14:50:23.568Z,5.92
2023-02-03T14:53:16.919Z,5.95
2023-02-03T14:56:20.082Z,5.95
2023-02-03T14:58:55.113Z,5.95
2023-02-03T15:01:29.277Z,5.92
2023-02-03T15:04:22.501Z,5.88
2023-02-03T15:06:53.625Z,5.82
2023-02-03T15:09:49.292Z,5.81
2023-02-03T15:12:27.199Z,5.80
2023-02-03T15:15:14.833Z,5.78
2023-02-03T15:17:44.389Z,5.78
2023-02-03T15:20:43.410Z,5.77
2023-02-03T15:23:27.718Z,5.76
2023-02-03T15:25:59.936Z,5.75
2023-02-03T15:28:30.506Z,5.72
2023-02-03T15:31:04.691Z,5.67
2023-02-03T15:33:36.549Z,5.63
2023-02-03T15:36:27.732Z,5.60
2023-02-03T15:39:25.059Z,5.55
2023-02-03T15:41:56.712Z,5.47
2023-02-03T15:44:33.227Z,5.40
2023-02-03T15:47:06.386Z,5.36
2023-02-03T15:49:42.944Z,5.33
2023-02-03T15:52:17.387Z,5.18
2023-02-03T15:54:53.841Z,4.87
2023-02-03T15:57:34.276Z,4.65
2023-02-03T16:00:27.081Z,4.42
2023-02-03T16:02:59.343Z,4.29
2023-02-03T16:05:33.475Z,4.20
2023-02-03T16:08:31.299Z,4.10
2023-02-03T16:11:00.234Z,4.04
2023-02-03T16:13:31.109Z,3.99
2023-02-03T16:16:06.778Z,3.99
2023-02-03T16:18:37.020Z,4.03
2023-02-03T16:21:05.895Z,4.02
2023-02-03T16:23:34.494Z,4.07
2023-02-03T16:26:07.801Z,4.06
2023-02-03T16:28:55.302Z,4.04
2023-02-03T16:31:43.583Z,4.07
2023-02-03T16:34:38.746Z,4.09
2023-02-03T16:37:41.866Z,4.11
2023-02-03T16:40:31.196Z,4.15
2023-02-03T16:43:18.463Z,4.20
2023-02-03T16:46:13.905Z,4.20
2023-02-03T16:49:04.216Z,4.22
2023-02-03T16:51:37.551Z,4.28
2023-02-03T16:54:07.497Z,4.31
2023-02-03T16:56:36.288Z,4.31
2023-02-03T16:59:05.017Z,4.33
2023-02-03T17:01:34.156Z,4.36
2023-02-03T17:04:03.210Z,4.36
2023-02-03T17:06:34.078Z,4.37
2023-02-03T17:09:02.817Z,4.39
2023-02-03T17:11:31.815Z,4.40
2023-02-03T17:14:00.602Z,4.42
2023-02-03T17:16:29.457Z,4.45
2023-02-03T17:18:58.533Z,4.47
2023-02-03T17:21:29.899Z,4.50
2023-02-03T17:24:02.994Z,4.54
2023-02-03T17:53:56.815Z,5.13
2023-02-03T17:56:26.975Z,5.13
2023-02-03T17:58:58.148Z,5.15
2023-02-03T18:01:27.725Z,5.16
2023-02-03T18:04:02.408Z,5.17
2023-02-03T18:06:36.383Z,5.16
2023-02-03T18:09:07.053Z,5.14
2023-02-03T18:11:37.970Z,5.13
2023-02-03T18:14:06.627Z,5.11
2023-02-03T18:16:36.795Z,5.12
2023-02-03T18:19:09.472Z,5.11
2023-02-03T18:21:39.859Z,5.13
2023-02-03T18:24:11.916Z,5.17
2023-02-03T18:26:52.182Z,5.19
2023-02-03T18:29:22.381Z,5.22
2023-02-03T18:31:51.358Z,5.24
2023-02-03T18:34:20.119Z,5.24
2023-02-03T18:36:49.300Z,5.24
2023-02-03T18:39:18.280Z,5.23
2023-02-03T18:41:47.017Z,5.22
2023-02-03T18:44:16.020Z,5.20
2023-02-03T18:46:44.493Z,5.18
2023-02-03T18:49:13.377Z,5.16
2023-02-03T18:51:42.391Z,5.13
2023-02-03T18:54:11.520Z,5.12
2023-02-03T18:56:40.668Z,5.12
2023-02-03T18:59:10.751Z,5.12
2023-02-03T19:01:39.339Z,5.13
2023-02-03T19:04:08.238Z,5.13
2023-02-03T19:06:37.793Z,5.14
2023-02-03T19:09:06.660Z,5.14
2023-02-03T19:11:35.514Z,5.16
2023-02-03T19:14:04.348Z,5.17
2023-02-03T19:16:32.972Z,5.17
2023-02-03T19:19:01.491Z,5.17
2023-02-03T19:21:30.046Z,5.18
2023-02-03T19:23:58.865Z,5.16
2023-02-03T19:26:28.212Z,5.16
2023-02-03T19:28:56.738Z,5.17
2023-02-03T19:31:25.376Z,5.17
2023-02-03T19:33:54.434Z,5.16
2023-02-03T19:36:23.105Z,5.16
2023-02-03T19:38:51.606Z,5.14
2023-02-03T19:41:20.910Z,5.13
2023-02-03T19:43:52.339Z,5.13
2023-02-03T19:46:22.243Z,5.11
2023-02-03T19:48:51.561Z,5.11
2023-02-03T19:51:20.096Z,5.09
2023-02-03T19:53:49.193Z,5.08
2023-02-03T19:56:20.523Z,5.09
2023-02-03T19:58:52.544Z,5.10
2023-02-03T20:01:23.226Z,5.11
2023-02-03T20:03:51.829Z,5.11
2023-02-03T20:06:20.619Z,5.10
2023-02-03T20:08:49.787Z,5.09
2023-02-03T20:11:20.692Z,5.11
2023-02-03T20:13:49.576Z,5.11
2023-02-03T20:16:18.784Z,5.10
2023-02-03T20:18:47.215Z,5.07
2023-02-03T20:21:15.895Z,5.03
2023-02-03T20:23:44.910Z,5.01
2023-02-03T20:26:14.319Z,4.99
2023-02-03T20:28:43.137Z,4.98
2023-02-03T20:31:13.322Z,4.93
2023-02-03T20:33:42.174Z,4.92
2023-02-03T20:36:12.976Z,4.92
2023-02-03T20:38:42.000Z,4.93
2023-02-03T20:41:11.508Z,4.93
2023-02-03T20:43:40.163Z,4.93
2023-02-03T20:46:13.502Z,4.91
2023-02-03T20:48:42.492Z,4.92
2023-02-03T20:51:12.885Z,4.96
2023-02-03T20:53:42.219Z,4.98
2023-02-03T20:56:15.118Z,4.96
2023-02-03T20:58:44.219Z,4.98
2023-02-03T21:01:17.122Z,4.96
2023-02-03T21:04:05.070Z,4.96
2023-02-03T21:06:34.872Z,4.94
2023-02-03T21:09:24.004Z,4.94
2023-02-03T21:11:52.694Z,4.94
2023-02-03T21:14:21.683Z,4.96
2023-02-03T21:16:51.036Z,5.00
2023-02-03T21:19:27.184Z,5.01
2023-02-03T21:21:56.563Z,5.01
2023-02-03T21:24:26.227Z,5.00
2023-02-03T21:26:55.366Z,4.98
2023-02-03T21:29:31.631Z,4.94
2023-02-03T21:32:00.725Z,4.92
2023-02-03T21:34:33.562Z,4.90
2023-02-03T21:37:08.150Z,4.85
2023-02-03T21:39:37.681Z,4.83
2023-02-03T21:42:40.520Z,4.79
2023-02-03T21:45:20.753Z,4.73
2023-02-03T21:47:50.205Z,4.69
2023-02-03T21:50:36.147Z,4.65
2023-02-03T21:53:10.823Z,4.61
2023-02-03T21:55:41.675Z,4.58
2023-02-03T21:58:29.329Z,4.55
2023-02-03T22:00:59.140Z,4.54
2023-02-03T22:03:29.517Z,4.53
2023-02-03T22:06:05.299Z,4.53
2023-02-03T22:08:36.624Z,4.54
2023-02-03T22:11:05.956Z,4.57
2023-02-03T22:13:34.779Z,4.61
2023-02-03T22:16:03.219Z,4.65
2023-02-03T22:18:32.312Z,4.71
2023-02-03T22:21:03.706Z,4.74
2023-02-03T22:23:33.275Z,4.77
2023-02-03T22:26:01.887Z,4.78
2023-02-03T22:28:30.460Z,4.80
2023-02-03T22:30:59.632Z,4.81
2023-02-03T22:33:28.748Z,4.83
2023-02-03T22:35:57.283Z,4.86
2023-02-03T22:38:26.040Z,4.86
2023-02-03T22:40:54.912Z,4.88
2023-02-03T22:43:23.330Z,4.91
2023-02-03T22:45:52.475Z,4.92
2023-02-03T22:48:21.565Z,4.93
2023-02-03T22:50:50.058Z,4.93
2023-02-03T22:53:19.032Z,4.92
2023-02-03T22:55:47.728Z,4.94
2023-02-03T22:58:16.109Z,4.94
2023-02-03T23:00:45.080Z,4.95
2023-02-03T23:03:14.019Z,4.96
2023-02-03T23:05:42.433Z,4.97
2023-02-03T23:08:11.157Z,4.97
2023-02-03T23:10:39.732Z,4.97
2023-02-03T23:13:08.449Z,4.97
2023-02-03T23:15:37.632Z,4.99
2023-02-03T23:18:06.178Z,5.00
2023-02-03T23:20:34.681Z,5.00
2023-02-03T23:23:03.519Z,5.01
2023-02-03T23:25:32.368Z,5.00
2023-02-03T23:28:00.804Z,4.98
2023-02-03T23:30:29.971Z,4.95
2023-02-03T23:32:58.988Z,4.94
2023-02-03T23:35:46.105Z,4.94
2023-02-03T23:38:15.700Z,4.95
2023-02-03T23:40:44.624Z,4.97
2023-02-03T23:43:13.374Z,4.98
2023-02-03T23:45:41.970Z,5.00
2023-02-03T23:48:10.589Z,5.03
2023-02-03T23:50:39.162Z,5.02
2023-02-03T23:53:07.920Z,4.75
2023-02-03T23:55:36.761Z,4.32
2023-02-03T23:58:05.736Z,4.02
